createdAt,value
2016-02-09T00:00:49.444Z,0
2016-02-09T00:01:49.417Z,0
2016-02-09T00:02:49.404Z,0
2016-02-09T00:03:49.375Z,0
2016-02-09T00:04:49.346Z,0
2016-02-09T00:05:49.334Z,0
2016-02-09T00:06:49.290Z,0
2016-02-09T00:07:49.262Z,0
2016-02-09T00:08:49.265Z,0
2016-02-09T00:09:49.220Z,0
2016-02-09T00:10:49.191Z,0
2016-02-09T00:11:49.194Z,0
2016-02-09T00:12:49.151Z,0
2016-02-09T00:13:49.120Z,0
2016-02-09T00:14:49.109Z,0
2016-02-09T00:15:49.111Z,0
2016-02-09T00:16:49.051Z,0
2016-02-09T00:17:49.039Z,0
2016-02-09T00:18:48.994Z,0
2016-02-09T00:19:48.966Z,0
2016-02-09T00:20:48.954Z,0
2016-02-09T00:21:48.956Z,0
2016-02-09T00:22:48.896Z,0
2016-02-09T00:23:48.876Z,0
2016-02-09T00:24:48.863Z,0
2016-02-09T00:25:48.834Z,0
2016-02-09T00:26:48.806Z,0
2016-02-09T00:27:48.796Z,0
2016-02-09T00:28:48.751Z,0
2016-02-09T00:29:48.723Z,0
2016-02-09T00:30:48.710Z,0
2016-02-09T00:31:48.712Z,0
2016-02-09T00:32:48.653Z,0
2016-02-09T00:33:48.624Z,0
2016-02-09T00:34:48.628Z,0
2016-02-09T00:35:48.583Z,0
2016-02-09T00:36:48.554Z,0
2016-02-09T00:37:48.541Z,0
2016-02-09T00:38:48.513Z,0
2016-02-09T00:39:48.484Z,0
2016-02-09T00:40:48.455Z,0
2016-02-09T00:41:48.461Z,0
2016-02-09T00:42:48.402Z,0
2016-02-09T00:43:48.404Z,0
2016-02-09T00:44:48.392Z,0
2016-02-09T00:45:48.331Z,0
2016-02-09T00:46:48.319Z,0
2016-02-09T00:47:48.291Z,0
2016-02-09T00:48:48.262Z,0
2016-02-09T00:49:48.235Z,0
2016-02-09T00:50:48.237Z,0
2016-02-09T00:51:48.177Z,0
2016-02-09T00:52:47.434Z,0
2016-02-09T00:53:48.143Z,0
2016-02-09T00:54:48.130Z,0
2016-02-09T00:55:48.086Z,0
2016-02-09T00:56:48.073Z,0
2016-02-09T00:57:48.060Z,0
2016-02-09T00:58:48.000Z,0
2016-02-09T00:59:48.002Z,0
2016-02-09T01:00:47.955Z,0
2016-02-09T01:01:47.927Z,0
2016-02-09T01:02:47.914Z,0
2016-02-09T01:03:47.886Z,0
2016-02-09T01:04:47.859Z,0
2016-02-09T01:05:47.845Z,0
2016-02-09T01:06:47.832Z,0
2016-02-09T01:07:47.789Z,0
2016-02-09T01:08:47.760Z,0
2016-02-09T01:09:47.763Z,0
2016-02-09T01:10:47.703Z,0
2016-02-09T01:11:47.689Z,0
2016-02-09T01:12:47.661Z,0
2016-02-09T01:13:47.632Z,0
2016-02-09T01:14:47.605Z,0
2016-02-09T01:15:47.591Z,0
2016-02-09T01:16:47.563Z,0
2016-02-09T01:17:47.535Z,0
2016-02-09T01:18:47.522Z,0
2016-02-09T01:19:47.478Z,0
2016-02-09T01:20:47.449Z,0
2016-02-09T01:21:47.452Z,0
2016-02-09T01:22:47.408Z,0
2016-02-09T01:23:47.379Z,0
2016-02-09T01:24:47.382Z,0
2016-02-09T01:25:47.322Z,0
2016-02-09T01:26:47.324Z,0
2016-02-09T01:27:47.297Z,0
2016-02-09T01:28:47.252Z,0
2016-02-09T01:29:47.238Z,0
2016-02-09T01:30:47.212Z,0
2016-02-09T01:31:47.184Z,0
2016-02-09T01:32:47.156Z,0
2016-02-09T01:33:47.158Z,0
2016-02-09T01:34:47.114Z,0
2016-02-09T01:35:47.085Z,0
2016-02-09T01:36:47.088Z,0
2016-02-09T01:37:47.028Z,0
2016-02-09T01:38:47.000Z,0
2016-02-09T01:39:47.004Z,0
2016-02-09T01:40:46.959Z,0
2016-02-09T01:41:46.946Z,0
2016-02-09T01:42:46.948Z,0
2016-02-09T01:43:46.890Z,0
2016-02-09T01:44:46.861Z,0
2016-02-09T01:45:46.849Z,0
2016-02-09T01:46:46.852Z,0
2016-02-09T01:47:46.777Z,0
2016-02-09T01:48:46.764Z,0
2016-02-09T01:49:46.751Z,0
2016-02-09T01:50:46.707Z,0
2016-02-09T01:51:46.680Z,0
2016-02-09T01:52:46.683Z,0
2016-02-09T01:53:46.640Z,0
2016-02-09T01:54:46.601Z,0
2016-02-09T01:55:46.589Z,0
2016-02-09T01:56:46.559Z,0
2016-02-09T01:57:46.530Z,0
2016-02-09T01:58:46.519Z,0
2016-02-09T01:59:46.505Z,0
2016-02-09T02:00:46.463Z,0
2016-02-09T02:01:46.450Z,0
2016-02-09T02:02:46.421Z,0
2016-02-09T02:03:46.377Z,0
2016-02-09T02:04:46.349Z,0
2016-02-09T02:05:46.352Z,0
2016-02-09T02:06:46.338Z,0
2016-02-09T02:07:46.279Z,0
2016-02-09T02:08:46.266Z,0
2016-02-09T02:09:46.253Z,0
2016-02-09T02:10:46.209Z,0
2016-02-09T02:11:46.196Z,0
2016-02-09T02:12:46.151Z,0
2016-02-09T02:13:46.126Z,0
2016-02-09T02:14:46.111Z,0
2016-02-09T02:15:46.115Z,0
2016-02-09T02:16:46.055Z,0
2016-02-09T02:17:46.042Z,0
2016-02-09T02:18:46.029Z,0
2016-02-09T02:19:45.973Z,0
2016-02-09T02:20:45.945Z,0
2016-02-09T02:21:45.933Z,0
2016-02-09T02:22:45.904Z,0
2016-02-09T02:23:45.876Z,0
2016-02-09T02:24:45.858Z,0
2016-02-09T02:25:45.830Z,0
2016-02-09T02:26:45.802Z,0
2016-02-09T02:27:45.791Z,0
2016-02-09T02:28:45.746Z,0
2016-02-09T02:29:45.733Z,0
2016-02-09T02:30:45.736Z,0
2016-02-09T02:31:45.677Z,0
2016-02-09T02:32:45.649Z,0
2016-02-09T02:33:45.636Z,0
2016-02-09T02:34:45.591Z,0
2016-02-09T02:35:45.562Z,0
2016-02-09T02:36:45.565Z,0
2016-02-09T02:37:45.521Z,0
2016-02-09T02:38:45.492Z,0
2016-02-09T02:39:45.479Z,0
2016-02-09T02:40:45.435Z,0
2016-02-09T02:41:45.424Z,0
2016-02-09T02:42:45.427Z,0
2016-02-09T02:43:45.367Z,0
2016-02-09T02:44:45.338Z,0
2016-02-09T02:45:45.341Z,0
2016-02-09T02:46:45.281Z,0
2016-02-09T02:47:45.269Z,0
2016-02-09T02:48:45.255Z,0
2016-02-09T02:49:45.213Z,0
2016-02-09T02:50:45.201Z,0
2016-02-09T02:51:45.171Z,0
2016-02-09T02:52:45.145Z,0
2016-02-09T02:53:45.117Z,0
2016-02-09T02:54:45.087Z,0
2016-02-09T02:55:45.060Z,0
2016-02-09T02:56:45.062Z,0
2016-02-09T02:57:45.003Z,0
2016-02-09T02:58:45.005Z,0
2016-02-09T02:59:44.976Z,0
2016-02-09T03:00:44.948Z,0
2016-02-09T03:01:44.904Z,0
2016-02-09T03:02:44.893Z,0
2016-02-09T03:03:44.864Z,0
2016-02-09T03:04:44.852Z,0
2016-02-09T03:05:44.808Z,0
2016-02-09T03:06:44.826Z,0
2016-02-09T03:07:44.766Z,0
2016-02-09T03:08:44.768Z,0
2016-02-09T03:09:44.709Z,0
2016-02-09T03:10:44.680Z,0
2016-02-09T03:11:44.683Z,0
2016-02-09T03:12:44.624Z,0
2016-02-09T03:13:44.611Z,0
2016-02-09T03:14:44.614Z,0
2016-02-09T03:15:44.601Z,0
2016-02-09T03:16:44.542Z,0
2016-02-09T03:17:44.514Z,0
2016-02-09T03:18:44.501Z,0
2016-02-09T03:19:44.456Z,0
2016-02-09T03:20:44.429Z,0
2016-02-09T03:21:44.294Z,0
2016-02-09T03:22:44.374Z,0
2016-02-09T03:23:44.346Z,0
2016-02-09T03:24:44.349Z,0
2016-02-09T03:25:44.305Z,0
2016-02-09T03:26:44.277Z,0
2016-02-09T03:27:44.280Z,0
2016-02-09T03:28:44.221Z,0
2016-02-09T03:29:44.035Z,0
2016-02-09T03:30:44.194Z,0
2016-02-09T03:31:44.181Z,0
2016-02-09T03:32:44.121Z,0
2016-02-09T03:33:44.109Z,0
2016-02-09T03:34:44.096Z,0
2016-02-09T03:35:44.051Z,0
2016-02-09T03:36:44.023Z,0
2016-02-09T03:37:44.010Z,0
2016-02-09T03:38:43.967Z,0
2016-02-09T03:39:43.955Z,0
2016-02-09T03:40:43.942Z,0
2016-02-09T03:41:43.881Z,0
2016-02-09T03:42:43.869Z,0
2016-02-09T03:43:43.857Z,0
2016-02-09T03:44:43.828Z,0
2016-02-09T03:45:43.784Z,0
2016-02-09T03:46:43.759Z,0
2016-02-09T03:47:43.746Z,0
2016-02-09T03:48:43.734Z,0
2016-02-09T03:49:43.689Z,0
2016-02-09T03:50:43.679Z,0
2016-02-09T03:51:43.666Z,0
2016-02-09T03:52:43.607Z,0
2016-02-09T03:53:43.578Z,0
2016-02-09T03:54:43.565Z,0
2016-02-09T03:55:43.536Z,0
2016-02-09T03:56:43.351Z,0
2016-02-09T03:57:43.495Z,0
2016-02-09T03:58:43.450Z,0
2016-02-09T03:59:43.422Z,0
2016-02-09T04:00:43.430Z,0
2016-02-09T04:01:43.385Z,0
2016-02-09T04:02:43.356Z,0
2016-02-09T04:03:43.358Z,0
2016-02-09T04:04:43.299Z,0
2016-02-09T04:05:43.270Z,0
2016-02-09T04:06:43.257Z,0
2016-02-09T04:07:43.229Z,0
2016-02-09T04:08:43.203Z,0
2016-02-09T04:09:43.190Z,0
2016-02-09T04:10:43.145Z,0
2016-02-09T04:11:43.132Z,0
2016-02-09T04:12:43.119Z,0
2016-02-09T04:13:43.063Z,0
2016-02-09T04:14:43.051Z,0
2016-02-09T04:15:43.021Z,0
2016-02-09T04:16:43.009Z,0
2016-02-09T04:17:42.965Z,0
2016-02-09T04:18:42.952Z,0
2016-02-09T04:19:42.907Z,0
2016-02-09T04:20:42.880Z,0
2016-02-09T04:21:42.867Z,0
2016-02-09T04:22:42.855Z,0
2016-02-09T04:23:42.810Z,0
2016-02-09T04:24:42.813Z,0
2016-02-09T04:25:42.832Z,0
2016-02-09T04:26:42.740Z,0
2016-02-09T04:27:42.714Z,0
2016-02-09T04:28:42.685Z,0
2016-02-09T04:29:42.673Z,0
2016-02-09T04:30:42.626Z,0
2016-02-09T04:31:42.597Z,0
2016-02-09T04:32:42.584Z,0
2016-02-09T04:33:42.540Z,0
2016-02-09T04:34:42.527Z,0
2016-02-09T04:35:42.530Z,0
2016-02-09T04:36:42.471Z,0
2016-02-09T04:37:42.443Z,0
2016-02-09T04:38:42.430Z,0
2016-02-09T04:39:42.401Z,0
2016-02-09T04:40:42.388Z,0
2016-02-09T04:41:42.360Z,0
2016-02-09T04:42:42.315Z,0
2016-02-09T04:43:42.303Z,0
2016-02-09T04:44:42.274Z,0
2016-02-09T04:45:42.246Z,0
2016-02-09T04:46:42.218Z,0
2016-02-09T04:47:42.205Z,0
2016-02-09T04:48:42.191Z,0
2016-02-09T04:49:42.133Z,0
2016-02-09T04:50:42.138Z,0
2016-02-09T04:51:42.110Z,0
2016-02-09T04:52:42.050Z,0
2016-02-09T04:53:42.053Z,0
2016-02-09T04:54:42.024Z,0
2016-02-09T04:55:42.011Z,0
2016-02-09T04:56:41.967Z,0
2016-02-09T04:57:41.956Z,0
2016-02-09T04:58:41.911Z,0
2016-02-09T04:59:41.882Z,0
2016-02-09T05:00:41.885Z,0
2016-02-09T05:01:41.841Z,0
2016-02-09T05:02:41.812Z,0
2016-02-09T05:03:41.800Z,0
2016-02-09T05:04:41.757Z,0
2016-02-09T05:05:41.743Z,0
2016-02-09T05:06:41.715Z,0
2016-02-09T05:07:41.701Z,0
2016-02-09T05:08:41.642Z,0
2016-02-09T05:09:41.645Z,0
2016-02-09T05:10:41.648Z,0
2016-02-09T05:11:41.573Z,0
2016-02-09T05:12:41.560Z,0
2016-02-09T05:13:41.562Z,0
2016-02-09T05:14:41.504Z,0
2016-02-09T05:15:41.474Z,0
2016-02-09T05:16:41.476Z,0
2016-02-09T05:17:41.432Z,0
2016-02-09T05:18:41.404Z,0
2016-02-09T05:19:41.392Z,0
2016-02-09T05:20:41.378Z,0
2016-02-09T05:21:41.318Z,0
2016-02-09T05:22:41.296Z,0
2016-02-09T05:23:41.284Z,0
2016-02-09T05:24:41.240Z,0
2016-02-09T05:25:41.211Z,0
2016-02-09T05:26:41.182Z,0
2016-02-09T05:27:41.154Z,0
2016-02-09T05:28:41.141Z,0
2016-02-09T05:29:41.113Z,0
2016-02-09T05:30:41.081Z,0
2016-02-09T05:31:41.052Z,0
2016-02-09T05:32:41.039Z,0
2016-02-09T05:33:40.998Z,0
2016-02-09T05:34:40.969Z,0
2016-02-09T05:35:40.956Z,0
2016-02-09T05:36:40.911Z,0
2016-02-09T05:37:40.899Z,0
2016-02-09T05:38:40.870Z,0
2016-02-09T05:39:40.857Z,0
2016-02-09T05:40:40.813Z,0
2016-02-09T05:41:40.785Z,0
2016-02-09T05:42:40.788Z,0
2016-02-09T05:43:40.727Z,0
2016-02-09T05:44:40.714Z,0
2016-02-09T05:45:40.701Z,0
2016-02-09T05:46:40.643Z,0
2016-02-09T05:47:40.616Z,0
2016-02-09T05:48:40.618Z,0
2016-02-09T05:49:40.573Z,0
2016-02-09T05:50:40.529Z,0
2016-02-09T05:51:40.531Z,0
2016-02-09T05:52:40.488Z,0
2016-02-09T05:53:40.461Z,0
2016-02-09T05:54:40.433Z,0
2016-02-09T05:55:40.404Z,0
2016-02-09T05:56:40.375Z,0
2016-02-09T05:57:40.363Z,0
2016-02-09T05:58:40.319Z,0
2016-02-09T05:59:40.290Z,0
2016-02-09T06:00:40.294Z,0
2016-02-09T06:01:40.250Z,0
2016-02-09T06:02:40.220Z,0
2016-02-09T06:03:40.192Z,0
2016-02-09T06:04:40.008Z,0
2016-02-09T06:05:40.120Z,0
2016-02-09T06:06:40.111Z,0
2016-02-09T06:07:40.099Z,0
2016-02-09T06:08:40.055Z,0
2016-02-09T06:09:40.027Z,0
2016-02-09T06:10:40.014Z,0
2016-02-09T06:11:39.970Z,0
2016-02-09T06:12:39.956Z,0
2016-02-09T06:13:39.944Z,0
2016-02-09T06:14:39.885Z,0
2016-02-09T06:15:39.857Z,0
2016-02-09T06:16:39.844Z,0
2016-02-09T06:17:39.805Z,0
2016-02-09T06:18:39.777Z,0
2016-02-09T06:19:39.765Z,0
2016-02-09T06:20:39.736Z,0
2016-02-09T06:21:39.699Z,0
2016-02-09T06:22:39.687Z,0
2016-02-09T06:23:39.658Z,0
2016-02-09T06:24:39.630Z,0
2016-02-09T06:25:39.601Z,0
2016-02-09T06:26:40.218Z,0
2016-02-09T06:27:39.595Z,0
2016-02-09T06:28:39.520Z,0
2016-02-09T06:29:39.492Z,0
2016-02-09T06:30:39.481Z,0
2016-02-09T06:31:39.436Z,0
2016-02-09T06:32:39.423Z,0
2016-02-09T06:33:39.755Z,0
2016-02-09T06:34:39.383Z,0
2016-02-09T06:35:39.322Z,0
2016-02-09T06:36:39.326Z,0
2016-02-09T06:37:39.282Z,0
2016-02-09T06:38:39.253Z,0
2016-02-09T06:39:39.333Z,0
2016-02-09T06:40:39.275Z,0
2016-02-09T06:41:39.167Z,0
2016-02-09T06:42:39.201Z,0
2016-02-09T06:43:39.111Z,0
2016-02-09T06:44:39.098Z,0
2016-02-09T06:45:39.085Z,0
2016-02-09T06:46:39.026Z,0
2016-02-09T06:47:39.028Z,5
2016-02-09T06:48:39.000Z,5
2016-02-09T06:49:38.943Z,5
2016-02-09T06:50:38.929Z,5
2016-02-09T06:51:38.918Z,5
2016-02-09T06:52:38.878Z,0
2016-02-09T06:53:38.849Z,5
2016-02-09T06:54:38.820Z,5
2016-02-09T06:55:38.808Z,5
2016-02-09T06:56:38.764Z,10
2016-02-09T06:57:38.736Z,10
2016-02-09T06:58:38.741Z,10
2016-02-09T06:59:38.680Z,15
2016-02-09T07:00:38.668Z,15
2016-02-09T07:01:38.655Z,15
2016-02-09T07:02:38.611Z,15
2016-02-09T07:03:38.582Z,15
2016-02-09T07:04:38.590Z,15
2016-02-09T07:05:38.562Z,15
2016-02-09T07:06:38.502Z,20
2016-02-09T07:07:38.459Z,20
2016-02-09T07:08:38.477Z,20
2016-02-09T07:09:38.433Z,25
2016-02-09T07:10:38.403Z,25
2016-02-09T07:11:38.379Z,20
2016-02-09T07:12:38.365Z,25
2016-02-09T07:13:38.323Z,25
2016-02-09T07:14:38.309Z,30
2016-02-09T07:15:38.108Z,30
2016-02-09T07:16:38.252Z,35
2016-02-09T07:17:38.239Z,40
2016-02-09T07:18:38.195Z,45
2016-02-09T07:19:38.167Z,45
2016-02-09T07:20:38.153Z,50
2016-02-09T07:21:38.109Z,50
2016-02-09T07:22:38.081Z,50
2016-02-09T07:23:38.067Z,55
2016-02-09T07:24:38.028Z,65
2016-02-09T07:25:38.016Z,70
2016-02-09T07:26:38.002Z,75
2016-02-09T07:27:37.943Z,80
2016-02-09T07:28:37.930Z,85
2016-02-09T07:29:37.916Z,95
2016-02-09T07:30:37.872Z,105
2016-02-09T07:31:37.844Z,105
2016-02-09T07:32:37.831Z,105
2016-02-09T07:33:37.819Z,105
2016-02-09T07:34:37.759Z,105
2016-02-09T07:35:37.747Z,100
2016-02-09T07:36:37.733Z,100
2016-02-09T07:37:37.689Z,105
2016-02-09T07:38:37.661Z,105
2016-02-09T07:39:37.648Z,110
2016-02-09T07:40:37.620Z,110
2016-02-09T07:41:37.576Z,105
2016-02-09T07:42:37.564Z,105
2016-02-09T07:43:37.551Z,105
2016-02-09T07:44:37.507Z,110
2016-02-09T07:45:37.494Z,115
2016-02-09T07:46:37.450Z,125
2016-02-09T07:47:37.424Z,135
2016-02-09T07:48:37.442Z,140
2016-02-09T07:49:37.383Z,145
2016-02-09T07:50:37.354Z,150
2016-02-09T07:51:37.325Z,160
2016-02-09T07:52:37.328Z,165
2016-02-09T07:53:37.270Z,170
2016-02-09T07:54:37.507Z,170
2016-02-09T07:55:37.230Z,175
2016-02-09T07:56:37.187Z,180
2016-02-09T07:57:37.173Z,180
2016-02-09T07:58:37.161Z,185
2016-02-09T07:59:37.101Z,190
2016-02-09T08:00:37.087Z,195
2016-02-09T08:01:37.078Z,200
2016-02-09T08:02:37.033Z,205
2016-02-09T08:03:37.005Z,205
2016-02-09T08:04:37.054Z,205
2016-02-09T08:05:36.995Z,200
2016-02-09T08:06:36.935Z,200
2016-02-09T08:07:36.922Z,200
2016-02-09T08:08:36.925Z,195
2016-02-09T08:09:36.883Z,200
2016-02-09T08:10:36.822Z,200
2016-02-09T08:11:36.810Z,205
2016-02-09T08:12:36.797Z,210
2016-02-09T08:13:36.753Z,220
2016-02-09T08:14:36.728Z,225
2016-02-09T08:15:36.731Z,225
2016-02-09T08:16:36.670Z,225
2016-02-09T08:17:36.631Z,225
2016-02-09T08:18:36.477Z,230
2016-02-09T08:19:36.620Z,230
2016-02-09T08:20:36.874Z,230
2016-02-09T08:21:36.535Z,230
2016-02-09T08:22:36.538Z,230
2016-02-09T08:23:36.512Z,230
2016-02-09T08:24:36.467Z,230
2016-02-09T08:25:36.453Z,230
2016-02-09T08:26:36.426Z,230
2016-02-09T08:27:36.412Z,230
2016-02-09T08:28:36.415Z,230
2016-02-09T08:29:36.356Z,225
2016-02-09T08:30:36.326Z,225
2016-02-09T08:31:36.380Z,235
2016-02-09T08:32:36.274Z,245
2016-02-09T08:33:36.261Z,250
2016-02-09T08:34:36.232Z,250
2016-02-09T08:35:36.203Z,245
2016-02-09T08:36:36.191Z,250
2016-02-09T08:37:36.146Z,240
2016-02-09T08:38:36.148Z,235
2016-02-09T08:39:36.105Z,235
2016-02-09T08:40:36.105Z,230
2016-02-09T08:41:35.892Z,230
2016-02-09T08:42:36.007Z,230
2016-02-09T08:43:35.981Z,230
2016-02-09T08:44:35.927Z,235
2016-02-09T08:45:35.886Z,230
2016-02-09T08:46:35.884Z,235
2016-02-09T08:47:35.837Z,235
2016-02-09T08:48:35.787Z,235
2016-02-09T08:49:35.786Z,235
2016-02-09T08:50:35.942Z,235
2016-02-09T08:51:35.928Z,235
2016-02-09T08:52:35.678Z,240
2016-02-09T08:53:35.744Z,245
2016-02-09T08:54:35.651Z,245
2016-02-09T08:55:35.606Z,240
2016-02-09T08:56:35.592Z,235
2016-02-09T08:57:35.563Z,230
2016-02-09T08:58:35.601Z,230
2016-02-09T08:59:35.509Z,230
2016-02-09T09:00:35.512Z,230
2016-02-09T09:01:35.451Z,230
2016-02-09T09:02:35.437Z,235
2016-02-09T09:03:35.597Z,235
2016-02-09T09:04:35.567Z,240
2016-02-09T09:05:35.460Z,245
2016-02-09T09:06:35.338Z,245
2016-02-09T09:07:35.310Z,250
2016-02-09T09:08:35.344Z,255
2016-02-09T09:09:35.331Z,260
2016-02-09T09:10:35.241Z,265
2016-02-09T09:11:35.197Z,270
2016-02-09T09:12:35.183Z,275
2016-02-09T09:13:35.171Z,280
2016-02-09T09:14:35.128Z,280
2016-02-09T09:15:35.100Z,280
2016-02-09T09:16:35.415Z,275
2016-02-09T09:17:35.090Z,275
2016-02-09T09:18:35.349Z,270
2016-02-09T09:19:35.023Z,270
2016-02-09T09:20:35.028Z,275
2016-02-09T09:21:34.968Z,270
2016-02-09T09:22:34.941Z,270
2016-02-09T09:23:34.911Z,265
2016-02-09T09:24:34.898Z,265
2016-02-09T09:25:34.871Z,260
2016-02-09T09:26:34.873Z,260
2016-02-09T09:27:34.657Z,255
2016-02-09T09:28:34.786Z,255
2016-02-09T09:29:34.773Z,250
2016-02-09T09:30:34.745Z,250
2016-02-09T09:31:34.716Z,250
2016-02-09T09:32:34.703Z,250
2016-02-09T09:33:34.675Z,255
2016-02-09T09:34:34.631Z,260
2016-02-09T09:35:34.619Z,275
2016-02-09T09:36:34.637Z,275
2016-02-09T09:37:34.686Z,280
2016-02-09T09:38:34.612Z,285
2016-02-09T09:39:34.551Z,285
2016-02-09T09:40:34.506Z,285
2016-02-09T09:41:34.478Z,280
2016-02-09T09:42:34.466Z,280
2016-02-09T09:43:34.438Z,280
2016-02-09T09:44:34.409Z,275
2016-02-09T09:45:34.365Z,270
2016-02-09T09:46:34.399Z,265
2016-02-09T09:47:34.370Z,260
2016-02-09T09:48:34.306Z,255
2016-02-09T09:49:34.292Z,250
2016-02-09T09:50:34.278Z,250
2016-02-09T09:51:34.235Z,250
2016-02-09T09:52:34.206Z,240
2016-02-09T09:53:34.209Z,235
2016-02-09T09:54:34.149Z,230
2016-02-09T09:55:34.152Z,225
2016-02-09T09:56:34.124Z,225
2016-02-09T09:57:34.220Z,220
2016-02-09T09:58:34.068Z,215
2016-02-09T09:59:34.257Z,205
2016-02-09T10:00:34.103Z,195
2016-02-09T10:01:33.981Z,185
2016-02-09T10:02:33.984Z,185
2016-02-09T10:03:33.939Z,175
2016-02-09T10:04:33.958Z,170
2016-02-09T10:05:33.898Z,160
2016-02-09T10:06:33.886Z,145
2016-02-09T10:07:34.013Z,140
2016-02-09T10:08:33.813Z,135
2016-02-09T10:09:33.816Z,130
2016-02-09T10:10:33.802Z,130
2016-02-09T10:11:33.758Z,135
2016-02-09T10:12:33.730Z,135
2016-02-09T10:13:33.716Z,135
2016-02-09T10:14:33.688Z,135
2016-02-09T10:15:33.659Z,135
2016-02-09T10:16:33.647Z,135
2016-02-09T10:17:33.602Z,135
2016-02-09T10:18:33.574Z,140
2016-02-09T10:19:33.565Z,140
2016-02-09T10:20:33.584Z,145
2016-02-09T10:21:33.570Z,150
2016-02-09T10:22:33.479Z,155
2016-02-09T10:23:33.466Z,160
2016-02-09T10:24:33.516Z,165
2016-02-09T10:25:33.425Z,165
2016-02-09T10:26:33.380Z,165
2016-02-09T10:27:33.368Z,165
2016-02-09T10:28:33.339Z,160
2016-02-09T10:29:33.330Z,165
2016-02-09T10:30:33.286Z,165
2016-02-09T10:31:33.258Z,175
2016-02-09T10:32:33.245Z,185
2016-02-09T10:33:33.216Z,195
2016-02-09T10:34:33.187Z,210
2016-02-09T10:35:33.175Z,215
2016-02-09T10:36:33.146Z,220
2016-02-09T10:37:33.133Z,225
2016-02-09T10:38:33.105Z,220
2016-02-09T10:39:33.076Z,215
2016-02-09T10:40:33.047Z,210
2016-02-09T10:41:33.034Z,205
2016-02-09T10:42:33.006Z,185
2016-02-09T10:43:32.977Z,165
2016-02-09T10:44:32.948Z,145
2016-02-09T10:45:32.923Z,135
2016-02-09T10:46:32.909Z,135
2016-02-09T10:47:32.881Z,130
2016-02-09T10:48:32.852Z,125
2016-02-09T10:49:32.808Z,120
2016-02-09T10:50:32.811Z,120
2016-02-09T10:51:32.777Z,115
2016-02-09T10:52:32.748Z,105
2016-02-09T10:53:32.720Z,105
2016-02-09T10:54:32.707Z,100
2016-02-09T10:55:32.678Z,95
2016-02-09T10:56:32.665Z,95
2016-02-09T10:57:32.637Z,100
2016-02-09T10:58:32.623Z,105
2016-02-09T10:59:32.580Z,110
2016-02-09T11:00:32.551Z,110
2016-02-09T11:01:32.539Z,110
2016-02-09T11:02:32.510Z,110
2016-02-09T11:03:32.545Z,110
2016-02-09T11:04:32.548Z,110
2016-02-09T11:05:32.425Z,110
2016-02-09T11:06:32.412Z,105
2016-02-09T11:07:32.399Z,105
2016-02-09T11:08:32.356Z,105
2016-02-09T11:09:32.327Z,100
2016-02-09T11:10:32.302Z,95
2016-02-09T11:11:32.274Z,95
2016-02-09T11:12:32.308Z,95
2016-02-09T11:13:32.248Z,95
2016-02-09T11:14:32.204Z,95
2016-02-09T11:15:32.286Z,100
2016-02-09T11:16:32.163Z,95
2016-02-09T11:17:32.118Z,100
2016-02-09T11:18:32.094Z,100
2016-02-09T11:19:32.096Z,100
2016-02-09T11:20:32.036Z,95
2016-02-09T11:21:32.025Z,95
2016-02-09T11:22:32.013Z,100
2016-02-09T11:23:31.969Z,100
2016-02-09T11:24:31.940Z,100
2016-02-09T11:25:31.944Z,100
2016-02-09T11:26:31.961Z,95
2016-02-09T11:27:31.870Z,90
2016-02-09T11:28:31.872Z,85
2016-02-09T11:29:31.831Z,85
2016-02-09T11:30:31.817Z,80
2016-02-09T11:31:31.774Z,75
2016-02-09T11:32:31.729Z,75
2016-02-09T11:33:31.717Z,70
2016-02-09T11:34:31.703Z,70
2016-02-09T11:35:31.659Z,70
2016-02-09T11:36:31.631Z,65
2016-02-09T11:37:31.619Z,65
2016-02-09T11:38:31.638Z,70
2016-02-09T11:39:31.563Z,65
2016-02-09T11:40:31.534Z,65
2016-02-09T11:41:31.521Z,65
2016-02-09T11:42:31.555Z,65
2016-02-09T11:43:31.495Z,65
2016-02-09T11:44:31.436Z,65
2016-02-09T11:45:31.407Z,65
2016-02-09T11:46:31.381Z,70
2016-02-09T11:47:31.352Z,75
2016-02-09T11:48:31.324Z,80
2016-02-09T11:49:31.296Z,85
2016-02-09T11:50:31.282Z,80
2016-02-09T11:51:31.244Z,80
2016-02-09T11:52:31.216Z,75
2016-02-09T11:53:31.188Z,70
2016-02-09T11:54:31.178Z,70
2016-02-09T11:55:31.150Z,70
2016-02-09T11:56:31.137Z,65
2016-02-09T11:57:31.092Z,65
2016-02-09T11:58:31.064Z,60
2016-02-09T11:59:31.036Z,60
2016-02-09T12:00:31.007Z,60
2016-02-09T12:01:30.978Z,55
2016-02-09T12:02:30.968Z,55
2016-02-09T12:03:30.924Z,55
2016-02-09T12:04:30.900Z,55
2016-02-09T12:05:30.888Z,55
2016-02-09T12:06:30.860Z,60
2016-02-09T12:07:30.816Z,65
2016-02-09T12:08:30.803Z,70
2016-02-09T12:09:30.774Z,65
2016-02-09T12:10:30.734Z,60
2016-02-09T12:11:30.720Z,60
2016-02-09T12:12:30.692Z,60
2016-02-09T12:13:30.663Z,60
2016-02-09T12:14:30.634Z,55
2016-02-09T12:15:30.731Z,55
2016-02-09T12:16:30.578Z,55
2016-02-09T12:17:30.565Z,60
2016-02-09T12:18:30.551Z,60
2016-02-09T12:19:30.508Z,65
2016-02-09T12:20:30.479Z,75
2016-02-09T12:21:30.457Z,80
2016-02-09T12:22:30.444Z,90
2016-02-09T12:23:30.368Z,110
2016-02-09T12:24:30.371Z,145
2016-02-09T12:25:30.326Z,145
2016-02-09T12:26:30.329Z,125
2016-02-09T12:27:30.304Z,125
2016-02-09T12:28:30.275Z,140
2016-02-09T12:29:30.231Z,155
2016-02-09T12:30:30.206Z,165
2016-02-09T12:31:30.021Z,170
2016-02-09T12:32:30.149Z,210
2016-02-09T12:33:30.122Z,205
2016-02-09T12:34:30.092Z,220
2016-02-09T12:35:30.094Z,215
2016-02-09T12:36:30.036Z,215
2016-02-09T12:37:30.022Z,210
2016-02-09T12:38:29.978Z,205
2016-02-09T12:39:29.965Z,240
2016-02-09T12:40:29.937Z,265
2016-02-09T12:41:29.908Z,255
2016-02-09T12:42:29.910Z,280
2016-02-09T12:43:29.851Z,225
2016-02-09T12:44:29.838Z,160
2016-02-09T12:45:29.794Z,160
2016-02-09T12:46:29.782Z,170
2016-02-09T12:47:29.768Z,155
2016-02-09T12:48:29.740Z,140
2016-02-09T12:49:29.993Z,150
2016-02-09T12:50:29.684Z,150
2016-02-09T12:51:29.656Z,145
2016-02-09T12:52:29.611Z,130
2016-02-09T12:53:29.599Z,110
2016-02-09T12:54:29.556Z,115
2016-02-09T12:55:29.543Z,125
2016-02-09T12:56:29.514Z,135
2016-02-09T12:57:29.470Z,170
2016-02-09T12:58:29.472Z,155
2016-02-09T12:59:29.428Z,135
2016-02-09T13:00:29.400Z,140
2016-02-09T13:01:29.371Z,155
2016-02-09T13:02:29.358Z,150
2016-02-09T13:03:29.315Z,165
2016-02-09T13:04:29.287Z,185
2016-02-09T13:05:29.273Z,195
2016-02-09T13:06:29.229Z,190
2016-02-09T13:07:29.217Z,255
2016-02-09T13:08:29.203Z,265
2016-02-09T13:09:29.159Z,190
2016-02-09T13:10:29.131Z,230
2016-02-09T13:11:29.117Z,190
2016-02-09T13:12:29.620Z,180
2016-02-09T13:13:29.045Z,165
2016-02-09T13:14:29.031Z,145
2016-02-09T13:15:29.003Z,160
2016-02-09T13:16:28.991Z,195
2016-02-09T13:17:29.087Z,195
2016-02-09T13:18:28.934Z,170
2016-02-09T13:19:28.889Z,220
2016-02-09T13:20:28.874Z,235
2016-02-09T13:21:28.845Z,320
2016-02-09T13:22:28.832Z,240
2016-02-09T13:23:28.788Z,230
2016-02-09T13:24:28.759Z,250
2016-02-09T13:25:28.762Z,225
2016-02-09T13:26:28.702Z,205
2016-02-09T13:27:28.689Z,180
2016-02-09T13:28:28.661Z,170
2016-02-09T13:29:28.632Z,165
2016-02-09T13:30:28.603Z,155
2016-02-09T13:31:28.575Z,140
2016-02-09T13:32:28.562Z,140
2016-02-09T13:33:28.534Z,150
2016-02-09T13:34:28.505Z,190
2016-02-09T13:35:28.476Z,250
2016-02-09T13:36:28.293Z,270
2016-02-09T13:37:28.264Z,300
2016-02-09T13:38:28.394Z,300
2016-02-09T13:39:28.365Z,345
2016-02-09T13:40:28.352Z,375
2016-02-09T13:41:28.323Z,375
2016-02-09T13:42:28.311Z,405
2016-02-09T13:43:28.267Z,455
2016-02-09T13:44:28.238Z,470
2016-02-09T13:45:28.225Z,465
2016-02-09T13:46:27.493Z,435
2016-02-09T13:47:28.152Z,365
2016-02-09T13:48:28.143Z,250
2016-02-09T13:49:28.130Z,175
2016-02-09T13:50:28.070Z,180
2016-02-09T13:51:28.057Z,205
2016-02-09T13:52:28.029Z,195
2016-02-09T13:53:28.031Z,200
2016-02-09T13:54:27.972Z,300
2016-02-09T13:55:27.959Z,415
2016-02-09T13:56:27.946Z,450
2016-02-09T13:57:27.933Z,455
2016-02-09T13:58:27.904Z,420
2016-02-09T13:59:27.860Z,395
2016-02-09T14:00:27.831Z,355
2016-02-09T14:01:27.804Z,315
2016-02-09T14:02:27.791Z,315
2016-02-09T14:03:27.763Z,320
2016-02-09T14:04:27.736Z,280
2016-02-09T14:05:27.707Z,270
2016-02-09T14:06:27.694Z,265
2016-02-09T14:07:27.680Z,265
2016-02-09T14:08:27.651Z,265
2016-02-09T14:09:27.608Z,270
2016-02-09T14:10:27.580Z,250
2016-02-09T14:11:27.582Z,235
2016-02-09T14:12:27.412Z,235
2016-02-09T14:13:27.524Z,265
2016-02-09T14:14:27.341Z,350
2016-02-09T14:15:27.452Z,440
2016-02-09T14:16:27.440Z,455
2016-02-09T14:17:27.410Z,455
2016-02-09T14:18:27.382Z,470